Time;durP1;ratioP1;P1;durP2;ratioP2;P2;SDS_P1;SDS_P2;PMS_P1;PMS_P2;Temp;Humidity;BMP_temperature;BMP_pressure;BME280_temperature;BME280_humidity;BME280_pressure;Samples;Min_cycle;Max_cycle;Signal;HPM_P1;HPM_P2
2022/08/02 06:28:05;;;;;;;11.27;9.27;;;;;;;;;;12973329;22;20348;-85
2022/08/02 06:33:32;;;;;;;4.13;2.70;;;;;;;;;;11815930;23;25556853;-85
2022/08/02 06:39:04;;;;;;;6.97;5.00;;;;;;;;;;12948128;22;19996;-85
2022/08/02 07:01:12;;;;;;;9.23;4.75;;;;;;;;;;12781796;23;20054;-85
2022/08/02 07:06:39;;;;;;;6.60;4.32;;;;;;;;;;12961084;23;20053;-84
2022/08/02 07:11:41;;;;;;;8.98;6.55;;;;;;;;;;12947836;22;20024;-84
2022/08/02 07:16:42;;;;;;;6.47;3.75;;;;;;;;;;12949429;23;20039;-84
2022/08/02 07:21:43;;;;;;;4.50;3.40;;;;;;;;;;12951770;22;20008;-84
2022/08/02 07:26:44;;;;;;;7.03;4.22;;;;;;;;;;12952642;23;20012;-84
2022/08/02 07:31:45;;;;;;;7.63;4.85;;;;;;;;;;12956287;22;20030;-86
2022/08/02 07:36:48;;;;;;;7.13;5.20;;;;;;;;;;12949543;23;20449;-82
2022/08/02 07:41:50;;;;;;;7.35;5.13;;;;;;;;;;12951249;22;19996;-83
2022/08/02 07:46:51;;;;;;;7.90;4.55;;;;;;;;;;12949440;23;20000;-84
2022/08/02 07:51:58;;;;;;;7.65;4.63;;;;;;;;;;12957079;22;20001;-84
2022/08/02 07:57:00;;;;;;;14.77;10.52;;;;;;;;;;12934975;23;20050;-84
2022/08/02 08:02:02;;;;;;;7.38;3.95;;;;;;;;;;12953211;22;20382;-84
2022/08/02 08:07:04;;;;;;;13.85;10.65;;;;;;;;;;12946743;23;20039;-84
2022/08/02 08:12:12;;;;;;;8.30;6.15;;;;;;;;;;12921014;23;20091;-84
2022/08/02 08:17:13;;;;;;;6.78;4.72;;;;;;;;;;12946742;23;20016;-83
2022/08/02 08:22:15;;;;;;;7.55;4.10;;;;;;;;;;12953821;22;19992;-84
2022/08/02 08:27:17;;;;;;;6.28;4.47;;;;;;;;;;12967415;22;20363;-84
2022/08/02 08:32:21;;;;;;;7.38;3.22;;;;;;;;;;12944718;22;20032;-85
2022/08/02 08:37:24;;;;;;;4.72;3.60;;;;;;;;;;12943068;23;20352;-85
2022/08/02 08:42:28;;;;;;;7.63;2.92;;;;;;;;;;12943999;23;20004;-82
2022/08/02 08:47:33;;;;;;;3.72;2.63;;;;;;;;;;12943624;23;20009;-84
2022/08/02 08:52:41;;;;;;;2.70;2.28;;;;;;;;;;12944568;23;20008;-84
2022/08/02 08:57:43;;;;;;;4.03;2.30;;;;;;;;;;12946738;22;20050;-84
2022/08/02 09:02:44;;;;;;;3.20;2.65;;;;;;;;;;12944631;23;20091;-83
2022/08/02 09:07:47;;;;;;;3.55;2.42;;;;;;;;;;12943006;22;20004;-83
2022/08/02 09:13:05;;;;;;;5.45;2.53;;;;;;;;;;12951017;23;20000;-83
2022/08/02 09:18:07;;;;;;;3.45;2.20;;;;;;;;;;12953351;22;20036;-83
2022/08/02 09:23:13;;;;;;;4.65;2.22;;;;;;;;;;12946295;23;20095;-83
2022/08/02 09:28:29;;;;;;;5.53;4.35;;;;;;;;;;12951298;22;20008;-83
2022/08/02 09:33:47;;;;;;;3.45;3.03;;;;;;;;;;12948842;22;20016;-83
2022/08/02 09:39:00;;;;;;;3.00;2.30;;;;;;;;;;12922782;22;20087;-84
2022/08/02 09:44:04;;;;;;;4.07;3.33;;;;;;;;;;12948184;23;20004;-82
2022/08/02 09:49:37;;;;;;;6.72;2.45;;;;;;;;;;12918220;22;20016;-83
2022/08/02 09:54:39;;;;;;;3.10;2.60;;;;;;;;;;12921255;23;20084;-84
2022/08/02 09:59:52;;;;;;;3.33;2.80;;;;;;;;;;12948776;22;20004;-83
2022/08/02 10:04:53;;;;;;;5.30;3.45;;;;;;;;;;12946910;23;20078;-84
2022/08/02 10:09:54;;;;;;;4.75;3.40;;;;;;;;;;12953367;22;20028;-82
2022/08/02 10:14:56;;;;;;;3.38;2.63;;;;;;;;;;12949823;23;20001;-84
2022/08/02 10:19:57;;;;;;;4.47;3.25;;;;;;;;;;12958494;22;19999;-83
2022/08/02 10:24:58;;;;;;;4.80;3.35;;;;;;;;;;12940211;23;20027;-84
2022/08/02 10:30:00;;;;;;;6.45;3.65;;;;;;;;;;12956376;22;20009;-83
2022/08/02 10:35:05;;;;;;;4.30;3.08;;;;;;;;;;12949261;23;20066;-83
2022/08/02 10:40:22;;;;;;;4.70;3.03;;;;;;;;;;12982864;22;20081;-84
2022/08/02 10:45:23;;;;;;;3.58;3.25;;;;;;;;;;13016625;22;20012;-83
2022/08/02 10:50:43;;;;;;;7.00;6.10;;;;;;;;;;13020746;22;20008;-83
2022/08/02 10:55:44;;;;;;;8.00;6.85;;;;;;;;;;13047399;22;19995;-82
2022/08/02 11:00:46;;;;;;;5.60;3.97;;;;;;;;;;13024334;22;20024;-83
2022/08/02 11:05:59;;;;;;;5.80;3.88;;;;;;;;;;13004312;22;20051;-84
2022/08/02 11:11:21;;;;;;;5.00;3.90;;;;;;;;;;13003072;22;20007;-84
2022/08/02 11:16:22;;;;;;;7.10;6.45;;;;;;;;;;13002425;22;20011;-84
2022/08/02 11:21:33;;;;;;;4.90;3.88;;;;;;;;;;12969244;22;20435;-83
2022/08/02 11:26:37;;;;;;;4.05;3.63;;;;;;;;;;13004720;22;20011;-86
2022/08/02 11:31:40;;;;;;;5.55;4.18;;;;;;;;;;13012463;22;20041;-84
2022/08/02 11:36:45;;;;;;;6.32;3.63;;;;;;;;;;13014980;22;20007;-84
2022/08/02 11:41:53;;;;;;;7.35;3.33;;;;;;;;;;13012822;22;20004;-84
2022/08/02 11:46:58;;;;;;;6.13;3.28;;;;;;;;;;13008919;22;20015;-85
2022/08/02 11:52:04;;;;;;;4.70;2.80;;;;;;;;;;13008767;22;20027;-84
2022/08/02 11:57:15;;;;;;;5.22;3.30;;;;;;;;;;13009004;22;20083;-84
2022/08/02 12:02:17;;;;;;;5.72;3.50;;;;;;;;;;13007449;22;19999;-86
2022/08/02 12:07:18;;;;;;;5.20;2.97;;;;;;;;;;13010867;22;20004;-84
2022/08/02 12:12:19;;;;;;;2.60;2.40;;;;;;;;;;13008777;22;20436;-84
2022/08/02 12:22:44;;;;;;;3.85;2.60;;;;;;;;;;13009317;22;20010;-85
2022/08/02 12:27:46;;;;;;;3.30;2.40;;;;;;;;;;13007226;22;20003;-86
2022/08/02 12:32:48;;;;;;;4.60;3.22;;;;;;;;;;13006502;22;20409;-87
2022/08/02 12:37:50;;;;;;;4.20;2.60;;;;;;;;;;13005687;22;20004;-86
2022/08/02 12:42:58;;;;;;;3.85;2.80;;;;;;;;;;13004811;22;20008;-86
2022/08/02 12:47:59;;;;;;;4.88;3.80;;;;;;;;;;13007510;22;20015;-85
2022/08/02 12:53:29;;;;;;;3.60;2.72;;;;;;;;;;13006059;22;20011;-83
2022/08/02 12:58:45;;;;;;;3.75;2.90;;;;;;;;;;12981309;22;20018;-85
2022/08/02 13:03:46;;;;;;;3.53;2.70;;;;;;;;;;13003607;22;19999;-84
2022/08/02 13:08:49;;;;;;;3.67;2.47;;;;;;;;;;12997457;22;20006;-85
2022/08/02 13:13:53;;;;;;;2.72;2.42;;;;;;;;;;12994960;22;20031;-86
2022/08/02 13:19:08;;;;;;;3.65;2.60;;;;;;;;;;12960425;22;20007;-85
2022/08/02 13:24:14;;;;;;;3.72;2.40;;;;;;;;;;12999681;22;20034;-87
2022/08/02 13:29:16;;;;;;;7.10;2.80;;;;;;;;;;12994749;22;20023;-87
2022/08/02 13:34:29;;;;;;;3.35;2.83;;;;;;;;;;12992822;22;20064;-87
2022/08/02 13:39:30;;;;;;;6.88;3.58;;;;;;;;;;12992879;22;20102;-87
2022/08/02 13:44:31;;;;;;;3.58;2.33;;;;;;;;;;12993795;22;20012;-86
2022/08/02 13:49:35;;;;;;;5.13;2.30;;;;;;;;;;12989468;22;20004;-86
2022/08/02 14:00:35;;;;;;;4.37;3.97;;;;;;;;;;12994765;22;20007;-87
2022/08/02 14:06:01;;;;;;;3.25;2.90;;;;;;;;;;12967753;22;20088;-87
2022/08/02 14:11:06;;;;;;;3.05;2.28;;;;;;;;;;12996208;22;20004;-87
2022/08/02 14:16:25;;;;;;;3.92;2.67;;;;;;;;;;12993637;22;20086;-87
2022/08/02 14:21:42;;;;;;;6.30;3.70;;;;;;;;;;12998514;22;20019;-88
2022/08/02 14:32:25;;;;;;;4.88;2.60;;;;;;;;;;13011186;22;19991;-86
2022/08/02 14:37:27;;;;;;;4.40;2.40;;;;;;;;;;13008269;22;20019;-85
2022/08/02 14:42:28;;;;;;;4.53;2.67;;;;;;;;;;13010266;22;20000;-85
2022/08/02 14:47:29;;;;;;;2.83;2.30;;;;;;;;;;13012801;22;20020;-86
2022/08/02 14:52:30;;;;;;;7.50;2.40;;;;;;;;;;12986508;22;20089;-85
2022/08/02 14:57:31;;;;;;;4.05;2.10;;;;;;;;;;12986632;22;20000;-85
2022/08/02 15:02:32;;;;;;;3.85;2.20;;;;;;;;;;13011368;22;20000;-84
2022/08/02 15:07:33;;;;;;;5.18;2.15;;;;;;;;;;13010864;22;20424;-85
2022/08/02 15:12:34;;;;;;;2.20;2.00;;;;;;;;;;13009482;22;20007;-85
2022/08/02 15:17:35;;;;;;;2.40;1.95;;;;;;;;;;13012578;22;20007;-84
2022/08/02 15:22:36;;;;;;;4.57;2.45;;;;;;;;;;13006835;22;20007;-85
2022/08/02 15:27:38;;;;;;;6.22;2.70;;;;;;;;;;13007040;22;20436;-86
2022/08/02 15:32:39;;;;;;;3.50;2.50;;;;;;;;;;13008389;22;20499;-84
2022/08/02 15:37:40;;;;;;;3.00;2.70;;;;;;;;;;13008038;22;20015;-85
2022/08/02 15:42:42;;;;;;;2.60;2.38;;;;;;;;;;13008214;22;20018;-86
2022/08/02 15:47:44;;;;;;;2.45;2.13;;;;;;;;;;13007798;22;20087;-85
2022/08/02 15:52:45;;;;;;;3.00;2.63;;;;;;;;;;13005705;22;20387;-83
2022/08/02 15:57:46;;;;;;;6.05;3.38;;;;;;;;;;13009154;22;20000;-86
2022/08/02 16:02:47;;;;;;;2.50;2.17;;;;;;;;;;13007745;22;20000;-85
2022/08/02 16:07:48;;;;;;;3.28;2.00;;;;;;;;;;13010004;22;19996;-85
2022/08/02 16:12:49;;;;;;;2.10;1.90;;;;;;;;;;13006233;22;20011;-84
2022/08/02 16:17:50;;;;;;;3.05;2.50;;;;;;;;;;13002867;22;20030;-85
2022/08/02 16:22:51;;;;;;;4.13;2.10;;;;;;;;;;13005301;22;20003;-85
2022/08/02 16:27:52;;;;;;;2.75;1.83;;;;;;;;;;13001351;22;20069;-82
2022/08/02 16:32:53;;;;;;;3.22;2.03;;;;;;;;;;12997983;22;20003;-81
2022/08/02 16:37:54;;;;;;;3.88;2.10;;;;;;;;;;12995440;22;20090;-81
2022/08/02 16:42:56;;;;;;;3.95;1.98;;;;;;;;;;12996384;22;20027;-79
2022/08/02 16:47:57;;;;;;;4.22;2.50;;;;;;;;;;12991460;22;20018;-80
2022/08/02 16:53:04;;;;;;;3.78;1.50;;;;;;;;;;12972705;22;20011;-79
2022/08/02 16:58:10;;;;;;;4.00;1.90;;;;;;;;;;12993518;22;20479;-80
2022/08/02 17:03:11;;;;;;;2.80;2.03;;;;;;;;;;12997204;22;20003;-80
2022/08/02 17:08:12;;;;;;;13.98;11.73;;;;;;;;;;12999503;22;20082;-79
2022/08/02 17:13:14;;;;;;;3.33;1.80;;;;;;;;;;12972916;22;20011;-79
2022/08/02 17:18:15;;;;;;;4.60;1.90;;;;;;;;;;12994997;22;20029;-79
2022/08/02 17:23:16;;;;;;;4.20;2.00;;;;;;;;;;12997899;22;20011;-80
2022/08/02 17:28:18;;;;;;;5.53;2.20;;;;;;;;;;12997961;22;20003;-80
2022/08/02 17:33:19;;;;;;;2.78;2.00;;;;;;;;;;12995959;22;20324;-80
2022/08/02 17:38:20;;;;;;;3.95;2.38;;;;;;;;;;12997105;22;20008;-80
2022/08/02 17:43:21;;;;;;;2.60;1.95;;;;;;;;;;12999595;22;20004;-81
2022/08/02 17:48:23;;;;;;;4.35;1.95;;;;;;;;;;12998281;22;20027;-81
2022/08/02 17:53:24;;;;;;;3.58;1.88;;;;;;;;;;12946620;22;20008;-80
2022/08/02 17:58:25;;;;;;;2.40;1.60;;;;;;;;;;13000600;22;20075;-81
2022/08/02 18:03:27;;;;;;;3.03;2.03;;;;;;;;;;12972664;22;20000;-80
2022/08/02 18:08:28;;;;;;;3.53;1.55;;;;;;;;;;12946244;22;20020;-80
2022/08/02 18:13:30;;;;;;;3.60;1.70;;;;;;;;;;12972142;22;20016;-80
2022/08/02 18:18:31;;;;;;;3.80;1.63;;;;;;;;;;12999881;22;20416;-81
2022/08/02 18:23:32;;;;;;;2.85;1.60;;;;;;;;;;12998313;22;20443;-81
2022/08/02 18:28:34;;;;;;;3.70;1.83;;;;;;;;;;12998274;22;20053;-80
2022/08/02 18:33:36;;;;;;;1.90;1.50;;;;;;;;;;12999531;22;20395;-79
2022/08/02 18:38:38;;;;;;;2.85;1.80;;;;;;;;;;12995799;22;20008;-81
2022/08/02 18:43:40;;;;;;;3.67;1.60;;;;;;;;;;12999381;22;20344;-80
2022/08/02 18:48:41;;;;;;;3.03;1.48;;;;;;;;;;12996495;22;20061;-80
2022/08/02 18:53:43;;;;;;;2.53;1.40;;;;;;;;;;12995176;22;20007;-79
2022/08/02 18:58:44;;;;;;;2.63;1.83;;;;;;;;;;12998017;22;20412;-80
2022/08/02 19:03:47;;;;;;;2.97;2.20;;;;;;;;;;12999496;22;20026;-80
2022/08/02 19:08:48;;;;;;;3.58;1.77;;;;;;;;;;13002983;22;20379;-80
2022/08/02 19:13:49;;;;;;;2.70;1.63;;;;;;;;;;12974429;22;20022;-79
2022/08/02 19:18:50;;;;;;;1.73;1.42;;;;;;;;;;12972491;22;20018;-80
2022/08/02 19:23:51;;;;;;;4.22;1.88;;;;;;;;;;12997857;22;19999;-80
